Time;durP1;ratioP1;P1;durP2;ratioP2;P2;SDS_P1;SDS_P2;PMS_P1;PMS_P2;Temp;Humidity;BMP_temperature;BMP_pressure;BME280_temperature;BME280_humidity;BME280_pressure;Samples;Min_cycle;Max_cycle;Signal;HPM_P1;HPM_P2
2022/04/14 00:00:17;;;;;;;8.17;6.33;;;13.50;52.60;;;;;;5139823;28;20515;-51
2022/04/14 00:02:47;;;;;;;9.47;7.03;;;13.50;52.70;;;;;;5142660;28;20196;-49
2022/04/14 00:05:18;;;;;;;11.97;7.00;;;13.50;52.90;;;;;;5141822;28;20464;-52
2022/04/14 00:07:48;;;;;;;7.70;6.90;;;13.40;52.90;;;;;;5140414;28;20289;-50
2022/04/14 00:10:19;;;;;;;10.63;7.23;;;13.40;53.10;;;;;;5140508;28;20208;-51
2022/04/14 00:12:50;;;;;;;10.70;7.00;;;13.40;53.20;;;;;;5139312;28;20725;-50
2022/04/14 00:15:20;;;;;;;10.40;7.20;;;13.30;53.30;;;;;;5142201;28;20868;-48
2022/04/14 00:17:51;;;;;;;10.63;7.63;;;13.30;53.40;;;;;;5140256;28;20185;-51
2022/04/14 00:20:22;;;;;;;7.40;6.40;;;13.30;53.60;;;;;;5155495;28;20186;-50
2022/04/14 00:22:52;;;;;;;9.80;6.30;;;13.30;53.90;;;;;;5139495;28;20216;-50
2022/04/14 00:25:23;;;;;;;16.73;7.40;;;13.20;54.10;;;;;;5151684;28;20477;-48
2022/04/14 00:27:53;;;;;;;11.93;7.20;;;13.20;54.30;;;;;;5140300;28;20182;-50
2022/04/14 00:30:24;;;;;;;9.20;6.57;;;13.20;54.50;;;;;;5153809;28;20189;-48
2022/04/14 00:32:54;;;;;;;12.33;7.40;;;13.20;54.70;;;;;;5122141;28;20236;-51
2022/04/14 00:35:25;;;;;;;6.70;6.10;;;13.20;55.00;;;;;;5150047;28;20211;-51
2022/04/14 00:37:55;;;;;;;9.67;6.67;;;13.10;55.10;;;;;;5143665;28;20248;-49
2022/04/14 00:40:26;;;;;;;10.97;6.90;;;13.00;55.40;;;;;;5140980;28;20228;-49
2022/04/14 00:42:57;;;;;;;7.63;6.83;;;13.00;55.70;;;;;;5137039;28;20864;-51
2022/04/14 00:45:27;;;;;;;9.80;6.90;;;13.00;56.10;;;;;;5141956;28;20213;-49
2022/04/14 00:47:58;;;;;;;7.57;6.37;;;13.00;56.40;;;;;;5139416;28;20185;-49
2022/04/14 00:50:28;;;;;;;9.50;7.20;;;13.00;56.60;;;;;;5145388;28;20201;-50
2022/04/14 00:52:59;;;;;;;8.60;6.83;;;12.90;56.90;;;;;;5141134;28;20209;-51
2022/04/14 00:55:30;;;;;;;16.00;6.57;;;12.90;57.40;;;;;;5138762;28;20331;-49
2022/04/14 00:58:00;;;;;;;6.57;5.87;;;12.90;57.70;;;;;;5140803;28;20267;-49
2022/04/14 01:00:31;;;;;;;8.57;6.53;;;12.80;58.00;;;;;;5130448;28;20620;-52
2022/04/14 01:03:03;;;;;;;5.77;5.27;;;12.80;58.40;;;;;;5147231;28;20192;-49
2022/04/14 01:05:33;;;;;;;6.80;6.00;;;12.70;58.90;;;;;;5149566;28;20213;-50
2022/04/14 01:08:05;;;;;;;11.00;5.50;;;12.70;59.30;;;;;;5160535;28;20445;-49
2022/04/14 01:10:37;;;;;;;10.07;7.27;;;12.60;59.70;;;;;;5140957;28;20244;-51
2022/04/14 01:13:09;;;;;;;7.90;6.27;;;12.60;61.10;;;;;;5157690;28;20492;-49
2022/04/14 01:15:39;;;;;;;7.47;6.23;;;12.50;61.80;;;;;;5156107;28;20454;-48
2022/04/14 01:18:10;;;;;;;7.07;6.37;;;12.50;62.50;;;;;;5150363;28;20847;-48
2022/04/14 01:20:42;;;;;;;10.97;5.90;;;12.50;62.60;;;;;;5137555;28;20229;-51
2022/04/14 01:23:18;;;;;;;8.97;6.80;;;12.60;63.10;;;;;;5150594;28;20275;-48
2022/04/14 01:25:49;;;;;;;7.50;6.13;;;12.60;63.80;;;;;;5141312;28;20472;-54
2022/04/14 01:28:20;;;;;;;5.87;5.30;;;12.60;63.90;;;;;;5141199;28;20452;-49
2022/04/14 01:30:50;;;;;;;6.13;5.47;;;12.60;63.90;;;;;;5144996;28;20449;-50
2022/04/14 01:33:21;;;;;;;15.90;7.40;;;12.60;64.00;;;;;;5143121;28;20213;-51
2022/04/14 01:35:51;;;;;;;7.13;6.47;;;12.60;64.60;;;;;;5143738;28;20240;-50
2022/04/14 01:38:22;;;;;;;7.00;6.30;;;12.60;65.20;;;;;;5149136;28;20181;-48
2022/04/14 01:40:52;;;;;;;7.70;6.90;;;12.50;65.50;;;;;;5144888;28;20182;-48
2022/04/14 01:43:23;;;;;;;12.30;7.33;;;12.50;66.00;;;;;;5143788;28;20243;-51
2022/04/14 01:45:54;;;;;;;11.60;7.40;;;12.50;66.90;;;;;;5153456;28;20345;-50
2022/04/14 01:48:25;;;;;;;7.80;6.37;;;12.40;67.70;;;;;;5157735;28;20190;-49
2022/04/14 01:50:56;;;;;;;9.70;6.40;;;12.40;68.10;;;;;;5161378;28;20189;-49
2022/04/14 01:53:26;;;;;;;15.23;6.20;;;12.40;68.00;;;;;;5145288;28;20859;-49
2022/04/14 01:55:57;;;;;;;9.57;6.70;;;12.40;68.70;;;;;;5156831;28;20214;-51
2022/04/14 01:58:27;;;;;;;6.20;5.50;;;12.40;70.60;;;;;;5158052;28;20549;-51
2022/04/14 02:00:58;;;;;;;10.10;7.20;;;12.30;71.50;;;;;;5143127;28;20200;-50
2022/04/14 02:03:28;;;;;;;9.33;6.80;;;12.20;72.50;;;;;;5143181;28;20197;-50
2022/04/14 02:05:59;;;;;;;9.00;7.20;;;12.10;74.40;;;;;;5143797;28;20221;-49
2022/04/14 02:08:29;;;;;;;12.97;7.33;;;12.10;75.20;;;;;;5136436;28;20231;-50
2022/04/14 02:11:01;;;;;;;10.97;6.43;;;12.00;76.70;;;;;;5137483;28;20553;-49
2022/04/14 02:13:32;;;;;;;9.00;5.93;;;12.00;76.90;;;;;;5150611;28;20920;-50
2022/04/14 02:16:03;;;;;;;7.33;5.93;;;12.00;77.40;;;;;;5143284;28;20456;-50
2022/04/14 02:18:34;;;;;;;7.80;5.80;;;11.90;78.80;;;;;;5142787;28;20932;-49
2022/04/14 02:21:04;;;;;;;9.10;6.73;;;11.80;80.60;;;;;;5142072;28;20438;-51
2022/04/14 02:23:35;;;;;;;8.00;7.10;;;11.80;84.90;;;;;;5141145;28;20224;-49
2022/04/14 02:26:05;;;;;;;9.63;6.70;;;11.80;85.90;;;;;;5143831;28;20320;-50
2022/04/14 02:28:36;;;;;;;9.63;7.37;;;11.80;86.70;;;;;;5152978;28;20220;-49
2022/04/14 02:31:06;;;;;;;11.07;7.57;;;11.80;88.20;;;;;;5161117;28;20257;-50
2022/04/14 02:33:37;;;;;;;9.47;6.47;;;11.70;90.30;;;;;;5140813;28;20233;-50
2022/04/14 02:36:07;;;;;;;17.63;8.10;;;11.70;91.00;;;;;;5140570;28;20197;-48
2022/04/14 02:38:38;;;;;;;12.17;7.83;;;11.70;92.20;;;;;;5144495;28;20557;-50
2022/04/14 02:41:08;;;;;;;12.63;8.30;;;11.70;92.70;;;;;;5147517;28;20186;-48
2022/04/14 02:43:39;;;;;;;9.50;7.40;;;11.70;92.70;;;;;;5141970;28;20217;-49
2022/04/14 02:46:10;;;;;;;16.27;7.47;;;11.70;93.80;;;;;;5144221;28;20204;-50
2022/04/14 02:48:40;;;;;;;12.03;8.17;;;11.80;93.80;;;;;;5143190;28;20194;-49
2022/04/14 02:51:11;;;;;;;8.47;7.20;;;11.80;94.20;;;;;;5156176;28;20554;-49
2022/04/14 02:53:41;;;;;;;8.13;7.43;;;11.80;93.40;;;;;;5156422;28;20186;-49
2022/04/14 02:56:12;;;;;;;15.60;8.17;;;11.90;93.50;;;;;;5152261;28;20692;-50
2022/04/14 02:58:43;;;;;;;13.00;8.43;;;12.00;93.50;;;;;;5156001;28;20185;-49
2022/04/14 03:01:13;;;;;;;12.60;8.93;;;12.00;93.30;;;;;;5151798;28;20634;-49
2022/04/14 03:03:44;;;;;;;12.47;8.43;;;12.10;93.60;;;;;;5136967;28;20642;-49
2022/04/14 03:06:14;;;;;;;18.43;10.40;;;12.00;93.60;;;;;;5142768;28;20209;-51
2022/04/14 03:08:45;;;;;;;16.87;10.20;;;12.00;93.80;;;;;;5154987;28;20662;-49
2022/04/14 03:11:15;;;;;;;20.80;9.03;;;12.00;93.90;;;;;;5141616;28;20185;-49
2022/04/14 03:13:46;;;;;;;14.90;9.47;;;11.90;94.10;;;;;;5141706;28;20181;-49
2022/04/14 03:16:16;;;;;;;35.07;11.60;;;11.90;94.90;;;;;;5139446;28;20212;-49
2022/04/14 03:18:47;;;;;;;22.03;10.73;;;11.90;95.50;;;;;;5159059;28;20178;-48
2022/04/14 03:21:17;;;;;;;17.20;10.17;;;11.80;95.90;;;;;;5138535;28;20182;-51
2022/04/14 03:23:48;;;;;;;14.10;10.03;;;11.70;96.10;;;;;;5155972;28;20220;-48
2022/04/14 03:26:18;;;;;;;13.67;10.00;;;11.60;96.70;;;;;;5155183;28;20209;-49
2022/04/14 03:28:49;;;;;;;15.40;9.40;;;11.50;97.20;;;;;;5141631;28;20193;-50
2022/04/14 03:31:19;;;;;;;14.10;8.80;;;11.50;98.30;;;;;;5139126;28;20230;-48
2022/04/14 03:33:50;;;;;;;16.03;9.70;;;11.40;99.40;;;;;;5152958;28;20185;-52
2022/04/14 03:36:20;;;;;;;9.97;8.90;;;11.40;99.90;;;;;;5141147;28;20205;-51
2022/04/14 03:38:51;;;;;;;15.50;9.10;;;11.40;99.90;;;;;;5140516;28;20197;-50
2022/04/14 03:41:21;;;;;;;11.00;8.13;;;11.40;99.90;;;;;;5141875;28;20666;-48
2022/04/14 03:43:52;;;;;;;19.60;8.67;;;11.30;99.90;;;;;;5142769;28;20188;-48
2022/04/14 03:46:23;;;;;;;10.77;7.63;;;11.40;99.90;;;;;;5159846;28;20686;-49
2022/04/14 03:48:56;;;;;;;10.67;8.50;;;11.40;99.90;;;;;;5144679;28;20762;-50
2022/04/14 03:51:26;;;;;;;17.40;7.57;;;11.30;99.90;;;;;;5142728;28;20578;-50
2022/04/14 03:53:57;;;;;;;11.93;7.33;;;11.40;99.90;;;;;;5144024;28;21458;-50
2022/04/14 03:56:27;;;;;;;9.80;7.10;;;11.40;99.90;;;;;;5143551;28;20289;-49
2022/04/14 03:59:00;;;;;;;11.83;7.43;;;11.30;99.90;;;;;;5135430;28;20182;-50
2022/04/14 04:01:30;;;;;;;14.30;7.60;;;11.30;99.90;;;;;;5142017;28;20190;-51
2022/04/14 04:04:01;;;;;;;15.30;8.47;;;11.20;99.90;;;;;;5147590;28;21007;-50
2022/04/14 04:06:31;;;;;;;10.67;8.27;;;11.20;99.90;;;;;;5143797;28;20292;-49
2022/04/14 04:09:02;;;;;;;9.60;7.20;;;11.10;99.90;;;;;;5156010;28;20190;-49
2022/04/14 04:11:32;;;;;;;9.30;7.57;;;11.10;99.90;;;;;;5158268;28;20244;-50
2022/04/14 04:14:03;;;;;;;14.40;7.80;;;11.10;99.90;;;;;;5138873;28;20178;-50
2022/04/14 04:16:34;;;;;;;9.00;6.53;;;11.10;99.90;;;;;;5144578;28;20217;-50
2022/04/14 04:19:04;;;;;;;12.77;7.40;;;11.10;99.90;;;;;;5140038;28;20194;-50
2022/04/14 04:21:35;;;;;;;7.67;6.90;;;11.10;99.90;;;;;;5136980;28;20312;-51
2022/04/14 04:24:05;;;;;;;10.20;7.20;;;11.10;99.90;;;;;;5139554;28;20198;-51
2022/04/14 04:26:36;;;;;;;12.87;7.00;;;11.00;99.90;;;;;;5136794;28;20225;-49
2022/04/14 04:29:07;;;;;;;8.20;7.23;;;11.10;99.90;;;;;;5151900;28;20239;-50
2022/04/14 04:31:37;;;;;;;9.27;7.40;;;11.10;99.90;;;;;;5150578;28;20212;-49
2022/04/14 04:34:08;;;;;;;7.60;6.33;;;11.10;99.90;;;;;;5164421;28;20471;-51
2022/04/14 04:36:38;;;;;;;32.93;7.50;;;11.10;99.90;;;;;;5138267;28;20209;-51
2022/04/14 04:39:09;;;;;;;10.63;6.50;;;11.10;99.90;;;;;;5137327;28;20193;-49
2022/04/14 04:41:39;;;;;;;8.93;6.87;;;11.20;99.90;;;;;;5134648;28;20186;-51
2022/04/14 04:44:10;;;;;;;11.70;7.63;;;11.20;99.90;;;;;;5153835;28;20224;-52
2022/04/14 04:46:41;;;;;;;13.30;7.10;;;11.30;99.90;;;;;;5154833;28;20274;-51
2022/04/14 04:49:12;;;;;;;10.77;7.17;;;11.40;99.90;;;;;;5139191;28;20256;-51
2022/04/14 04:51:42;;;;;;;12.03;7.43;;;11.50;99.90;;;;;;5139118;28;21032;-50
2022/04/14 04:54:13;;;;;;;14.17;7.30;;;11.60;99.90;;;;;;5130012;28;20457;-50
2022/04/14 04:56:43;;;;;;;16.80;7.80;;;11.80;99.90;;;;;;5142474;28;20283;-51
2022/04/14 04:59:14;;;;;;;15.03;6.47;;;11.90;99.90;;;;;;5156537;28;20205;-49
2022/04/14 05:01:44;;;;;;;13.00;7.73;;;12.00;99.90;;;;;;5136317;28;20209;-50
2022/04/14 05:04:15;;;;;;;13.77;7.40;;;12.20;99.90;;;;;;5134082;28;20591;-52
2022/04/14 05:06:45;;;;;;;10.00;7.00;;;12.20;99.90;;;;;;5143246;28;20218;-49
2022/04/14 05:09:16;;;;;;;12.33;7.63;;;12.10;99.90;;;;;;5137804;28;20305;-49
2022/04/14 05:11:47;;;;;;;12.43;6.87;;;12.10;99.90;;;;;;5138889;28;20652;-51
2022/04/14 05:14:17;;;;;;;9.90;6.67;;;12.10;99.90;;;;;;5137506;28;20213;-48
2022/04/14 05:16:47;;;;;;;11.87;7.87;;;12.30;99.90;;;;;;5139018;28;20189;-49
2022/04/14 05:19:18;;;;;;;10.60;7.80;;;12.30;99.90;;;;;;5153426;28;20190;-49
2022/04/14 05:21:48;;;;;;;15.03;8.00;;;12.30;99.90;;;;;;5142018;28;20830;-50
2022/04/14 05:24:19;;;;;;;10.00;7.40;;;12.30;99.90;;;;;;5148385;28;20193;-49
2022/04/14 05:26:50;;;;;;;13.47;6.90;;;12.30;99.90;;;;;;5161066;28;20618;-50
2022/04/14 05:29:20;;;;;;;11.97;7.20;;;12.30;99.90;;;;;;5141077;28;20220;-50
2022/04/14 05:31:51;;;;;;;8.70;7.40;;;12.30;99.90;;;;;;5156469;28;20209;-51
2022/04/14 05:34:21;;;;;;;9.67;7.17;;;12.30;99.90;;;;;;5142849;28;20438;-50
2022/04/14 05:36:52;;;;;;;9.07;7.00;;;12.40;99.90;;;;;;5154689;28;20280;-51
2022/04/14 05:39:23;;;;;;;10.87;7.80;;;12.40;99.90;;;;;;5144490;28;20220;-51
2022/04/14 05:41:53;;;;;;;15.07;6.23;;;12.40;99.90;;;;;;5159738;28;20453;-51
2022/04/14 05:44:24;;;;;;;15.40;7.00;;;12.50;99.90;;;;;;5142805;28;20200;-49
2022/04/14 05:46:54;;;;;;;10.07;7.57;;;12.70;99.90;;;;;;5145975;28;20185;-48
2022/04/14 05:49:25;;;;;;;11.10;7.20;;;12.80;99.90;;;;;;5142792;28;20201;-50
2022/04/14 05:51:55;;;;;;;15.87;7.37;;;13.10;99.90;;;;;;5150869;28;20214;-50
2022/04/14 05:54:26;;;;;;;14.87;7.23;;;13.40;99.90;;;;;;5142244;28;20194;-50
2022/04/14 05:56:56;;;;;;;11.23;6.73;;;13.80;99.90;;;;;;5139363;28;20198;-49
2022/04/14 05:59:27;;;;;;;8.30;6.90;;;14.10;99.90;;;;;;5138082;28;20193;-50
2022/04/14 06:01:57;;;;;;;11.37;6.50;;;14.40;99.90;;;;;;5139786;28;20272;-50
2022/04/14 06:04:28;;;;;;;13.43;6.30;;;14.60;99.90;;;;;;5146812;28;20197;-50
2022/04/14 06:06:58;;;;;;;9.60;6.77;;;14.70;99.90;;;;;;5135437;28;20189;-50
2022/04/14 06:09:29;;;;;;;11.93;6.83;;;14.80;99.90;;;;;;5154204;28;20296;-51
2022/04/14 06:11:59;;;;;;;9.17;7.40;;;14.70;99.90;;;;;;5139025;28;20205;-51
2022/04/14 06:14:33;;;;;;;14.20;6.83;;;14.70;99.90;;;;;;5156436;28;20448;-48
2022/04/14 06:17:03;;;;;;;12.37;7.43;;;14.60;99.90;;;;;;5148672;28;20606;-51
2022/04/14 06:19:34;;;;;;;7.80;7.07;;;14.80;99.90;;;;;;5141215;28;20441;-50
2022/04/14 06:22:04;;;;;;;12.10;7.67;;;14.90;99.90;;;;;;5157597;28;20200;-51
2022/04/14 06:24:35;;;;;;;9.63;6.23;;;15.20;99.90;;;;;;5144199;28;20220;-50
2022/04/14 06:27:06;;;;;;;14.80;8.50;;;15.50;99.90;;;;;;5147660;28;20633;-50
2022/04/14 06:29:36;;;;;;;11.47;6.63;;;15.90;99.70;;;;;;5141777;28;20284;-50
2022/04/14 06:32:07;;;;;;;9.03;6.47;;;16.30;98.00;;;;;;5137111;28;20654;-48
2022/04/14 06:34:38;;;;;;;6.53;5.93;;;16.80;96.00;;;;;;5156790;28;20223;-50
2022/04/14 06:37:08;;;;;;;8.83;5.57;;;17.60;91.70;;;;;;5150901;28;20449;-49
2022/04/14 06:39:39;;;;;;;13.53;7.20;;;18.70;80.30;;;;;;5140417;28;20269;-52
2022/04/14 06:42:10;;;;;;;9.83;6.20;;;19.10;69.00;;;;;;5133162;28;20201;-50
2022/04/14 06:44:40;;;;;;;10.03;5.83;;;19.20;68.60;;;;;;5142116;28;20646;-51
2022/04/14 06:47:11;;;;;;;9.03;6.67;;;20.20;63.70;;;;;;5143612;28;20207;-50
2022/04/14 06:49:42;;;;;;;8.57;6.37;;;21.10;56.70;;;;;;5141187;28;20196;-51
2022/04/14 06:52:12;;;;;;;9.33;6.50;;;21.70;53.70;;;;;;5134416;28;20277;-50
2022/04/14 06:54:43;;;;;;;10.67;6.07;;;22.20;52.00;;;;;;5155363;28;20619;-52
2022/04/14 06:57:14;;;;;;;7.93;6.40;;;22.60;50.90;;;;;;5153812;28;20182;-49
2022/04/14 06:59:45;;;;;;;9.63;6.40;;;23.00;49.20;;;;;;5134606;28;20444;-51
2022/04/14 07:02:16;;;;;;;9.73;5.43;;;23.10;47.40;;;;;;5142281;28;20449;-51
2022/04/14 07:04:46;;;;;;;11.00;6.23;;;23.20;47.90;;;;;;5158836;28;20620;-50
2022/04/14 07:07:17;;;;;;;7.80;5.77;;;23.70;46.70;;;;;;5144193;28;20200;-50
2022/04/14 07:09:47;;;;;;;7.90;6.77;;;24.40;45.70;;;;;;5158410;28;20209;-51
2022/04/14 07:12:18;;;;;;;6.23;5.70;;;24.90;43.30;;;;;;5141826;28;20280;-49
2022/04/14 07:14:49;;;;;;;7.50;4.87;;;25.50;42.50;;;;;;5157100;28;20216;-50
2022/04/14 07:17:20;;;;;;;10.00;5.87;;;25.80;41.80;;;;;;5157625;28;20588;-49
2022/04/14 07:19:51;;;;;;;8.90;6.43;;;26.20;41.10;;;;;;5141147;28;20181;-50
2022/04/14 07:22:22;;;;;;;12.70;5.30;;;26.40;39.50;;;;;;5156695;28;20477;-50
2022/04/14 07:24:53;;;;;;;6.10;5.50;;;26.00;40.40;;;;;;5157680;28;20218;-51
2022/04/14 07:27:24;;;;;;;10.00;6.03;;;25.80;40.50;;;;;;5137970;28;20209;-51
2022/04/14 07:29:54;;;;;;;6.07;5.50;;;25.60;40.60;;;;;;5146489;28;20475;-51
2022/04/14 07:32:34;;;;;;;7.17;6.13;;;25.10;40.90;;;;;;5136277;28;20217;-50
2022/04/14 07:35:06;;;;;;;9.93;6.30;;;24.10;42.40;;;;;;5135184;28;20201;-52
2022/04/14 07:37:37;;;;;;;7.47;5.10;;;22.50;45.00;;;;;;5142957;28;20445;-52
2022/04/14 07:40:08;;;;;;;8.43;5.77;;;21.70;47.10;;;;;;5203517;23;20646;-49
2022/04/14 07:42:41;;;;;;;15.30;6.33;;;22.10;47.60;;;;;;5205083;28;20230;-49
2022/04/14 07:45:15;;;;;;;7.87;5.50;;;23.00;45.60;;;;;;5205321;28;20430;-47
2022/04/14 07:47:45;;;;;;;6.07;5.43;;;23.60;44.90;;;;;;5204732;28;20434;-47
2022/04/14 07:50:19;;;;;;;6.30;5.10;;;24.50;44.10;;;;;;5204726;28;20944;-49
2022/04/14 07:52:51;;;;;;;6.47;4.97;;;24.80;43.20;;;;;;5201963;28;20266;-49
2022/04/14 07:55:28;;;;;;;8.13;5.80;;;25.60;41.80;;;;;;5201369;28;20910;-54
2022/04/14 07:58:07;;;;;;;6.53;5.70;;;26.00;40.40;;;;;;5187428;28;20441;-49
2022/04/14 08:00:39;;;;;;;9.23;5.20;;;26.20;40.00;;;;;;5185829;28;20430;-47
2022/04/14 08:03:10;;;;;;;5.47;4.97;;;26.90;39.70;;;;;;5202824;28;20519;-49
2022/04/14 08:05:42;;;;;;;5.27;4.27;;;27.20;38.80;;;;;;5200072;28;20438;-47
2022/04/14 08:08:19;;;;;;;4.63;4.20;;;26.90;38.90;;;;;;5204209;28;20184;-48
2022/04/14 08:10:50;;;;;;;9.93;5.50;;;25.90;40.40;;;;;;5203673;28;20934;-46
2022/04/14 08:13:21;;;;;;;4.67;4.20;;;24.80;42.00;;;;;;5201822;28;20458;-48
2022/04/14 08:15:51;;;;;;;6.83;4.10;;;23.90;43.80;;;;;;5205116;28;20242;-50
2022/04/14 08:18:22;;;;;;;6.53;4.03;;;23.00;45.40;;;;;;5202491;28;20218;-49
2022/04/14 08:20:53;;;;;;;5.77;4.00;;;22.30;47.00;;;;;;5188366;28;20263;-49
2022/04/14 08:23:23;;;;;;;5.67;4.10;;;21.20;49.30;;;;;;5202642;28;20191;-49
2022/04/14 08:25:54;;;;;;;7.67;4.60;;;20.80;50.70;;;;;;5199069;28;20266;-48
2022/04/14 08:28:24;;;;;;;4.20;3.80;;;21.10;51.10;;;;;;5200470;28;20579;-48
2022/04/14 08:30:56;;;;;;;4.70;4.30;;;21.60;50.70;;;;;;5193961;28;20203;-49
2022/04/14 08:33:27;;;;;;;7.93;3.90;;;21.90;49.90;;;;;;5201289;28;20199;-49
2022/04/14 08:35:59;;;;;;;4.07;3.50;;;22.10;50.20;;;;;;5205474;28;20918;-48
2022/04/14 08:38:29;;;;;;;3.83;3.10;;;22.40;49.20;;;;;;5197646;28;20199;-50
2022/04/14 08:41:04;;;;;;;5.30;3.23;;;22.20;49.40;;;;;;5195179;28;20513;-50
2022/04/14 08:43:36;;;;;;;5.10;3.03;;;21.70;50.20;;;;;;5202623;28;20255;-50
2022/04/14 08:46:08;;;;;;;2.60;2.50;;;21.20;51.30;;;;;;5202346;28;20820;-53
2022/04/14 08:48:40;;;;;;;3.27;3.00;;;21.10;51.80;;;;;;5203537;28;20453;-48
2022/04/14 08:51:14;;;;;;;8.83;4.00;;;21.00;52.20;;;;;;5208755;28;20481;-50
2022/04/14 08:53:44;;;;;;;5.57;3.07;;;21.00;52.30;;;;;;5197481;28;20525;-51
2022/04/14 08:56:16;;;;;;;3.63;3.00;;;20.90;52.70;;;;;;5192144;28;20908;-48
2022/04/14 08:58:48;;;;;;;11.07;3.07;;;20.90;52.90;;;;;;5183637;28;20682;-48
2022/04/14 09:01:19;;;;;;;6.30;2.00;;;20.90;53.30;;;;;;5190176;28;20469;-50
2022/04/14 09:03:54;;;;;;;2.57;2.37;;;21.20;53.10;;;;;;5202841;28;20516;-50
2022/04/14 09:06:28;;;;;;;4.53;2.63;;;21.20;52.90;;;;;;5198811;28;20265;-50
2022/04/14 09:09:00;;;;;;;3.77;2.60;;;21.30;52.50;;;;;;5196862;28;20929;-50
2022/04/14 09:11:30;;;;;;;2.60;2.50;;;21.50;53.00;;;;;;5195383;28;20437;-49
2022/04/14 09:14:01;;;;;;;3.47;2.80;;;21.60;52.40;;;;;;5181975;28;20437;-50
2022/04/14 09:16:33;;;;;;;2.40;2.27;;;21.40;52.30;;;;;;5195660;28;20188;-50
2022/04/14 09:19:03;;;;;;;3.17;2.97;;;21.20;52.90;;;;;;5200504;28;20267;-48
2022/04/14 09:21:34;;;;;;;3.90;3.60;;;21.10;53.20;;;;;;5188636;28;20473;-49
2022/04/14 09:24:05;;;;;;;3.70;3.37;;;20.60;54.20;;;;;;5200293;28;20191;-50
2022/04/14 09:26:39;;;;;;;3.47;2.97;;;20.70;54.50;;;;;;5200481;28;20184;-50
2022/04/14 09:29:12;;;;;;;3.43;3.13;;;20.80;54.20;;;;;;5201627;28;20209;-49
2022/04/14 09:31:48;;;;;;;4.00;3.53;;;21.00;54.10;;;;;;5191032;28;20593;-50
2022/04/14 09:34:42;;;;;;;5.23;3.60;;;21.30;53.70;;;;;;5190265;28;20958;-51
2022/04/14 09:37:13;;;;;;;2.40;2.33;;;21.90;52.80;;;;;;5191415;28;20513;-50
2022/04/14 09:39:56;;;;;;;3.37;1.50;;;21.80;52.30;;;;;;5190496;28;20555;-50
2022/04/14 09:42:29;;;;;;;1.70;1.60;;;21.20;53.20;;;;;;5197829;28;20188;-49
2022/04/14 09:45:23;;;;;;;1.93;1.83;;;21.10;54.10;;;;;;5195952;28;20767;-50
2022/04/14 09:47:55;;;;;;;3.53;1.63;;;20.90;54.50;;;;;;5199436;28;20977;-49
2022/04/14 09:50:39;;;;;;;2.30;2.00;;;20.70;55.10;;;;;;5201111;28;20466;-49
2022/04/14 09:53:15;;;;;;;1.97;1.87;;;20.60;55.50;;;;;;5198746;28;20461;-50
2022/04/14 09:55:51;;;;;;;3.10;1.97;;;20.50;55.80;;;;;;5204165;28;20455;-48
2022/04/14 09:58:24;;;;;;;1.97;1.87;;;20.30;56.40;;;;;;5202947;28;20485;-48
2022/04/14 10:00:58;;;;;;;2.73;1.57;;;20.00;57.30;;;;;;5199628;28;20426;-50
2022/04/14 10:03:30;;;;;;;3.10;2.60;;;19.60;58.10;;;;;;5206889;28;20962;-50
2022/04/14 10:06:07;;;;;;;12.70;8.60;;;19.30;59.30;;;;;;5199067;28;20533;-49
2022/04/14 10:08:51;;;;;;;6.00;3.17;;;19.30;60.20;;;;;;5195238;28;20949;-51
2022/04/14 10:11:28;;;;;;;10.30;3.80;;;19.30;60.70;;;;;;5198406;28;20787;-49
2022/04/14 10:14:12;;;;;;;5.13;4.07;;;19.30;61.50;;;;;;5200800;28;20422;-50
2022/04/14 10:16:45;;;;;;;6.40;5.07;;;19.40;61.70;;;;;;5202726;28;20488;-49
2022/04/14 10:19:15;;;;;;;28.37;14.07;;;19.30;62.10;;;;;;5204254;28;20508;-51
2022/04/14 10:21:46;;;;;;;11.53;8.23;;;19.50;62.40;;;;;;5198685;28;20442;-47
2022/04/14 10:24:18;;;;;;;8.60;4.97;;;19.50;62.10;;;;;;5217506;28;20177;-49
2022/04/14 10:26:50;;;;;;;6.97;4.77;;;19.60;62.30;;;;;;5201296;28;20619;-50
2022/04/14 10:29:22;;;;;;;4.40;3.73;;;19.60;62.70;;;;;;5200978;28;20906;-50
2022/04/14 10:31:54;;;;;;;6.90;6.20;;;19.50;63.00;;;;;;5201017;28;20517;-49
2022/04/14 10:34:25;;;;;;;3.47;3.27;;;19.30;64.60;;;;;;5202213;28;20528;-50
2022/04/14 10:36:56;;;;;;;2.50;2.40;;;19.30;66.20;;;;;;5200374;28;20808;-48
2022/04/14 10:39:29;;;;;;;11.10;5.97;;;19.30;67.10;;;;;;5206262;28;20465;-50
2022/04/14 10:42:01;;;;;;;23.57;11.33;;;19.20;67.50;;;;;;5182767;28;20447;-49
2022/04/14 10:44:48;;;;;;;4.07;3.77;;;19.30;68.70;;;;;;5206278;28;20504;-49
2022/04/14 10:47:34;;;;;;;5.73;3.10;;;19.40;69.00;;;;;;5200444;28;20434;-48
2022/04/14 10:50:17;;;;;;;7.53;3.73;;;19.40;68.80;;;;;;5192688;28;20597;-51
2022/04/14 10:53:08;;;;;;;4.57;4.17;;;19.50;69.50;;;;;;5197495;28;20600;-51
2022/04/14 10:55:44;;;;;;;15.27;9.00;;;19.70;68.90;;;;;;5214715;28;20438;-49
2022/04/14 10:58:27;;;;;;;8.93;7.67;;;19.60;68.60;;;;;;5212737;28;20480;-49
2022/04/14 11:00:57;;;;;;;4.33;3.93;;;19.60;69.50;;;;;;5197508;28;20435;-49
2022/04/14 11:03:48;;;;;;;8.70;5.67;;;19.50;70.50;;;;;;5201516;28;20446;-47
2022/04/14 11:06:41;;;;;;;3.93;3.20;;;19.30;72.20;;;;;;5201065;28;20328;-47
2022/04/14 11:09:42;;;;;;;2.80;2.70;;;19.10;74.00;;;;;;5216735;28;20883;-49
2022/04/14 11:12:19;;;;;;;9.10;6.47;;;18.90;76.20;;;;;;5195051;28;20454;-50
2022/04/14 11:14:53;;;;;;;16.53;4.70;;;19.00;77.30;;;;;;5197752;28;20435;-49
2022/04/14 11:17:48;;;;;;;9.73;6.90;;;19.00;77.90;;;;;;5200004;28;20441;-48
2022/04/14 11:20:44;;;;;;;2.40;1.73;;;19.10;79.00;;;;;;5202569;28;20976;-47
2022/04/14 11:23:15;;;;;;;4.83;2.00;;;18.90;79.30;;;;;;5191790;28;20513;-49
2022/04/14 11:25:48;;;;;;;3.70;2.10;;;18.60;81.60;;;;;;5200636;28;20524;-48
2022/04/14 11:28:30;;;;;;;0.93;0.93;;;18.50;83.80;;;;;;5202052;28;20244;-50
2022/04/14 11:31:23;;;;;;;3.77;1.10;;;18.40;84.90;;;;;;5202710;28;20430;-50
2022/04/14 11:33:57;;;;;;;1.77;1.67;;;18.20;90.10;;;;;;5205454;28;20410;-48
2022/04/14 11:36:54;;;;;;;19.23;6.40;;;18.20;90.70;;;;;;5204280;28;20520;-50
2022/04/14 11:39:25;;;;;;;5.67;4.60;;;18.20;90.60;;;;;;5189342;28;20541;-52
2022/04/14 11:42:07;;;;;;;2.37;1.70;;;18.00;91.30;;;;;;5202603;28;20534;-50
2022/04/14 11:44:37;;;;;;;4.87;2.00;;;18.00;91.60;;;;;;5203500;28;20570;-48
2022/04/14 11:47:10;;;;;;;2.70;1.23;;;17.90;92.40;;;;;;5206088;28;20445;-48
2022/04/14 11:49:41;;;;;;;1.33;1.23;;;17.80;93.50;;;;;;5204259;28;20313;-46
2022/04/14 11:52:12;;;;;;;4.10;2.23;;;17.80;93.30;;;;;;5196131;28;20525;-48
2022/04/14 11:54:44;;;;;;;2.23;1.50;;;17.60;93.80;;;;;;5201019;28;20509;-47
2022/04/14 11:57:20;;;;;;;10.97;7.07;;;17.60;94.50;;;;;;5202378;28;20266;-49
2022/04/14 11:59:51;;;;;;;8.03;5.50;;;17.40;95.90;;;;;;5199498;28;20462;-46
2022/04/14 12:02:24;;;;;;;16.17;8.03;;;17.20;97.90;;;;;;5203213;28;20911;-50
2022/04/14 12:04:56;;;;;;;10.00;4.20;;;17.00;99.30;;;;;;5198299;28;20868;-48
2022/04/14 12:07:31;;;;;;;1.17;1.17;;;17.00;99.90;;;;;;5207345;28;20433;-48
2022/04/14 12:10:07;;;;;;;6.53;4.87;;;17.00;99.90;;;;;;5196805;28;21047;-47
2022/04/14 12:12:38;;;;;;;7.97;5.73;;;16.80;99.90;;;;;;5200594;28;20454;-47
2022/04/14 12:15:09;;;;;;;10.00;5.00;;;16.60;99.90;;;;;;5195902;28;20513;-50
2022/04/14 12:17:40;;;;;;;4.67;2.50;;;16.50;99.90;;;;;;5194123;28;20221;-49
2022/04/14 12:20:10;;;;;;;4.20;1.77;;;16.40;99.90;;;;;;5203127;28;20953;-51
2022/04/14 12:22:43;;;;;;;3.93;3.30;;;16.20;99.90;;;;;;5199716;28;20574;-51
2022/04/14 12:25:13;;;;;;;8.20;4.17;;;15.90;99.90;;;;;;5198091;28;20180;-49
2022/04/14 12:27:48;;;;;;;9.40;5.60;;;15.70;99.90;;;;;;5200543;28;20778;-48
2022/04/14 12:30:21;;;;;;;7.50;3.17;;;15.60;99.90;;;;;;5201400;28;20211;-52
2022/04/14 12:33:04;;;;;;;12.33;8.17;;;15.60;99.90;;;;;;5204810;28;20973;-49
2022/04/14 12:35:39;;;;;;;32.27;14.17;;;15.60;99.90;;;;;;5197468;28;20450;-49
2022/04/14 12:38:12;;;;;;;5.67;4.63;;;15.50;99.90;;;;;;5197573;28;20429;-48
2022/04/14 12:40:52;;;;;;;3.10;2.90;;;15.30;99.90;;;;;;5202787;28;20977;-49
2022/04/14 12:43:26;;;;;;;10.83;3.03;;;15.30;99.90;;;;;;5186415;28;20523;-48
2022/04/14 12:45:57;;;;;;;3.67;3.37;;;15.10;99.90;;;;;;5201315;28;20456;-49
2022/04/14 12:48:35;;;;;;;2.90;2.60;;;15.00;99.90;;;;;;5201659;28;20454;-51
2022/04/14 12:51:06;;;;;;;3.80;3.50;;;14.90;99.90;;;;;;5197153;28;20676;-49
2022/04/14 12:53:36;;;;;;;2.80;2.70;;;14.80;99.90;;;;;;5206468;28;20559;-48
2022/04/14 12:56:10;;;;;;;3.30;3.00;;;14.70;99.90;;;;;;5196510;28;20195;-47
2022/04/14 12:59:08;;;;;;;4.00;3.23;;;14.50;99.90;;;;;;5203475;28;20200;-49
2022/04/14 13:01:50;;;;;;;4.63;4.17;;;14.30;99.90;;;;;;5203443;28;20458;-50
2022/04/14 13:04:43;;;;;;;6.47;4.77;;;14.20;99.90;;;;;;5204901;28;20441;-50
2022/04/14 13:07:15;;;;;;;12.20;5.30;;;14.00;99.90;;;;;;5196705;28;20551;-50
2022/04/14 13:10:04;;;;;;;7.60;3.90;;;13.80;99.90;;;;;;5188353;28;20454;-49